Time;durP1;ratioP1;P1;durP2;ratioP2;P2;SDS_P1;SDS_P2;PMS_P1;PMS_P2;Temp;Humidity;BMP_temperature;BMP_pressure;BME280_temperature;BME280_humidity;BME280_pressure;Samples;Min_cycle;Max_cycle;Signal;HPM_P1;HPM_P2
2022/06/11 00:01:50;;;;;;;;;;;;;;;17.75;62.86;98261.94;6195444;23;19946;-87
2022/06/11 00:04:25;;;;;;;;;;;;;;;17.75;63.13;98266.50;6221252;23;19942;-85
2022/06/11 00:06:52;;;;;;;;;;;;;;;17.75;63.41;98266.50;6248042;23;19924;-84
2022/06/11 00:09:19;;;;;;;;;;;;;;;17.75;62.80;98274.59;6196295;23;19926;-87
2022/06/11 00:11:45;;;;;;;;;;;;;;;17.76;62.85;98270.94;6172174;23;19919;-87
2022/06/11 00:14:11;;;;;;;;;;;;;;;17.76;62.43;98271.75;6221273;23;20288;-85
2022/06/11 00:16:37;;;;;;;;;;;;;;;17.80;62.62;98273.03;6221060;23;19926;-84
2022/06/11 00:19:03;;;;;;;;;;;;;;;17.81;62.49;98276.56;6221253;23;20297;-84
2022/06/11 00:21:30;;;;;;;;;;;;;;;17.81;62.22;98276.56;6248611;23;19919;-85
2022/06/11 00:23:56;;;;;;;;;;;;;;;17.84;62.10;98281.59;6171362;23;20344;-85
2022/06/11 00:26:22;;;;;;;;;;;;;;;17.85;61.71;98280.56;6221376;23;20002;-86
2022/06/11 00:28:48;;;;;;;;;;;;;;;17.85;61.48;98277.84;6221325;23;20347;-78
2022/06/11 00:31:14;;;;;;;;;;;;;;;17.85;61.75;98280.56;6220925;23;20000;-78
2022/06/11 00:33:39;;;;;;;;;;;;;;;17.82;61.45;98279.06;6195811;23;20369;-78
2022/06/11 00:36:06;;;;;;;;;;;;;;;17.78;61.32;98271.53;6195827;23;19919;-79
2022/06/11 00:38:32;;;;;;;;;;;;;;;17.83;61.44;98274.53;6220748;23;20401;-78
2022/06/11 00:40:58;;;;;;;;;;;;;;;17.88;61.48;98285.56;6221044;23;19966;-78
2022/06/11 00:43:25;;;;;;;;;;;;;;;17.87;61.42;98287.44;6191191;23;19942;-78
2022/06/11 00:45:57;;;;;;;;;;;;;;;17.90;61.23;98284.34;6191225;23;19920;-79
2022/06/11 00:48:27;;;;;;;;;;;;;;;17.87;61.10;98284.75;6216002;23;19923;-79
2022/06/11 00:50:59;;;;;;;;;;;;;;;17.89;60.99;98281.84;6241691;23;20010;-78
2022/06/11 00:53:33;;;;;;;;;;;;;;;17.91;61.01;98277.09;6241456;23;19920;-79
2022/06/11 00:56:00;;;;;;;;;;;;;;;17.94;61.18;98279.38;6241637;23;19920;-79
2022/06/11 00:58:30;;;;;;;;;;;;;;;17.97;61.07;98284.38;6191229;23;19926;-79
2022/06/11 01:00:59;;;;;;;;;;;;;;;17.99;61.00;98274.22;6215703;23;19924;-78
2022/06/11 01:03:28;;;;;;;;;;;;;;;18.06;60.69;98277.81;6190990;23;20410;-80
2022/06/11 01:06:09;;;;;;;;;;;;;;;18.09;59.95;98279.28;6215217;23;19955;-81
2022/06/11 01:08:53;;;;;;;;;;;;;;;18.10;60.01;98280.97;6216198;23;19985;-80
2022/06/11 01:11:38;;;;;;;;;;;;;;;18.13;60.11;98275.19;6215634;23;19998;-83
2022/06/11 01:14:10;;;;;;;;;;;;;;;18.14;60.27;98274.97;6214832;23;19978;-78
2022/06/11 01:16:42;;;;;;;;;;;;;;;18.20;60.12;98268.78;6216995;23;19926;-78
2022/06/11 01:19:19;;;;;;;;;;;;;;;18.30;60.12;98273.00;6216037;23;19927;-80
2022/06/11 01:21:58;;;;;;;;;;;;;;;18.51;60.02;98275.63;6215350;23;19920;-77
2022/06/11 01:24:23;;;;;;;;;;;;;;;18.73;59.27;98272.81;6215887;23;19994;-77
2022/06/11 01:26:49;;;;;;;;;;;;;;;18.79;59.04;98277.44;6191775;23;20311;-79
2022/06/11 01:29:38;;;;;;;;;;;;;;;18.76;58.79;98278.69;6216153;23;19920;-78
2022/06/11 01:32:09;;;;;;;;;;;;;;;18.83;58.60;98284.13;6160726;23;20372;-79
2022/06/11 01:34:41;;;;;;;;;;;;;;;18.85;58.70;98282.06;6217477;23;20340;-79
2022/06/11 01:37:09;;;;;;;;;;;;;;;18.90;58.48;98295.84;6215759;23;19920;-80
2022/06/11 01:39:38;;;;;;;;;;;;;;;19.03;58.64;98292.34;6215290;23;19920;-80
2022/06/11 01:42:12;;;;;;;;;;;;;;;18.87;58.53;98293.53;6191577;23;19959;-82
2022/06/11 01:44:41;;;;;;;;;;;;;;;18.59;59.15;98294.41;6195277;23;19926;-80
2022/06/11 01:47:07;;;;;;;;;;;;;;;18.62;59.26;98299.41;6220336;23;19955;-80
2022/06/11 01:49:37;;;;;;;;;;;;;;;18.63;59.46;98301.09;6220813;23;20371;-79
2022/06/11 01:52:21;;;;;;;;;;;;;;;18.73;58.73;98300.75;6195416;23;19926;-79
2022/06/11 01:54:53;;;;;;;;;;;;;;;18.51;59.44;98301.84;6219561;23;19920;-78
2022/06/11 01:57:31;;;;;;;;;;;;;;;18.48;59.58;98302.25;6219944;23;19942;-80
2022/06/11 01:59:57;;;;;;;;;;;;;;;18.66;59.39;98300.69;6219697;23;19919;-79
2022/06/11 02:02:36;;;;;;;;;;;;;;;18.68;59.23;98304.00;6246852;23;20373;-80
2022/06/11 02:05:05;;;;;;;;;;;;;;;18.66;59.52;98294.44;6195010;23;19928;-79
2022/06/11 02:07:42;;;;;;;;;;;;;;;18.72;59.28;98304.47;6219933;23;19920;-79
2022/06/11 02:10:14;;;;;;;;;;;;;;;18.78;59.49;98294.75;6194879;23;20358;-80
2022/06/11 02:12:49;;;;;;;;;;;;;;;18.85;59.18;98298.31;6219596;23;19923;-80
2022/06/11 02:15:14;;;;;;;;;;;;;;;19.00;59.16;98290.06;6153427;23;20020;-79
2022/06/11 02:17:41;;;;;;;;;;;;;;;19.03;59.21;98295.91;6129283;23;19924;-81
2022/06/11 02:20:13;;;;;;;;;;;;;;;19.12;59.00;98291.97;6129446;23;19979;-79
2022/06/11 02:22:45;;;;;;;;;;;;;;;19.17;58.49;98300.31;6129092;23;19952;-81
2022/06/11 02:25:16;;;;;;;;;;;;;;;19.34;58.66;98302.66;6151878;23;19921;-80
2022/06/11 02:27:43;;;;;;;;;;;;;;;19.29;58.15;98299.72;6153541;23;19921;-80
2022/06/11 02:30:11;;;;;;;;;;;;;;;19.30;58.15;98307.66;6129124;23;19920;-77
2022/06/11 02:32:40;;;;;;;;;;;;;;;19.35;58.26;98299.75;6158495;23;19927;-84
2022/06/11 02:35:08;;;;;;;;;;;;;;;19.42;57.89;98289.75;6153980;23;20003;-79
2022/06/11 02:37:41;;;;;;;;;;;;;;;19.56;57.44;98296.03;6153943;23;20345;-79
2022/06/11 02:40:10;;;;;;;;;;;;;;;19.62;56.96;98300.66;6128667;23;20007;-79
2022/06/11 02:42:37;;;;;;;;;;;;;;;19.64;57.53;98298.59;6129207;23;19920;-80
2022/06/11 02:45:03;;;;;;;;;;;;;;;19.71;57.24;98295.91;6105969;23;19924;-82
2022/06/11 02:47:29;;;;;;;;;;;;;;;19.72;57.09;98300.25;6194728;23;19935;-81
2022/06/11 02:49:54;;;;;;;;;;;;;;;19.79;57.43;98306.53;6245301;23;19923;-90
2022/06/11 02:52:21;;;;;;;;;;;;;;;19.92;57.19;98305.69;6219696;23;19919;-81
2022/06/11 02:54:49;;;;;;;;;;;;;;;20.22;56.93;98310.72;6219620;23;19919;-80
2022/06/11 02:57:17;;;;;;;;;;;;;;;20.27;56.76;98313.63;6194642;23;20061;-81
2022/06/11 02:59:43;;;;;;;;;;;;;;;20.12;56.76;98314.69;6219508;23;19927;-79
2022/06/11 03:02:09;;;;;;;;;;;;;;;20.06;57.03;98312.81;6220033;23;19926;-88
2022/06/11 03:04:35;;;;;;;;;;;;;;;20.06;57.48;98317.41;6170323;23;20306;-89
2022/06/11 03:07:01;;;;;;;;;;;;;;;20.03;57.22;98318.63;6220284;23;19933;-84
2022/06/11 03:09:29;;;;;;;;;;;;;;;20.04;57.01;98312.16;6218971;23;19920;-80
2022/06/11 03:11:55;;;;;;;;;;;;;;;20.25;56.85;98315.72;6195009;23;20264;-82
2022/06/11 03:14:20;;;;;;;;;;;;;;;20.11;57.13;98325.72;6219690;23;19919;-85
2022/06/11 03:16:46;;;;;;;;;;;;;;;20.01;57.14;98315.31;6219911;23;19920;-84
2022/06/11 03:19:12;;;;;;;;;;;;;;;19.98;57.14;98318.44;6220082;23;19950;-85
2022/06/11 03:21:39;;;;;;;;;;;;;;;20.07;57.37;98314.47;6195278;23;19920;-86
2022/06/11 03:24:05;;;;;;;;;;;;;;;20.16;56.94;98325.09;6195683;23;20359;-88
2022/06/11 03:26:30;;;;;;;;;;;;;;;20.46;56.65;98312.78;6219450;23;19923;-80
2022/06/11 03:28:56;;;;;;;;;;;;;;;20.70;56.35;98315.88;6194220;23;19927;-82
2022/06/11 03:31:22;;;;;;;;;;;;;;;20.77;55.64;98322.97;6247024;23;20316;-84
2022/06/11 03:33:48;;;;;;;;;;;;;;;20.61;56.20;98315.25;6219726;23;19920;-86
2022/06/11 03:36:15;;;;;;;;;;;;;;;20.82;55.69;98316.91;6220491;23;19926;-82
2022/06/11 03:38:42;;;;;;;;;;;;;;;20.72;55.63;98320.03;6223051;23;19923;-87
2022/06/11 03:41:08;;;;;;;;;;;;;;;20.53;55.80;98324.47;6198305;23;19923;-80
2022/06/11 03:43:34;;;;;;;;;;;;;;;20.46;56.61;98326.34;6217415;23;19954;-80
2022/06/11 03:46:00;;;;;;;;;;;;;;;20.67;56.31;98321.75;6218806;23;19920;-85
2022/06/11 03:48:28;;;;;;;;;;;;;;;20.93;55.54;98313.50;6193178;23;20272;-85
2022/06/11 03:50:55;;;;;;;;;;;;;;;20.89;55.49;98317.72;6220975;23;19927;-86
2022/06/11 03:53:21;;;;;;;;;;;;;;;21.03;55.60;98327.50;6222530;23;19920;-88
2022/06/11 03:55:47;;;;;;;;;;;;;;;21.10;54.94;98328.31;6193201;23;20343;-81
2022/06/11 03:58:13;;;;;;;;;;;;;;;20.72;56.36;98325.47;6217603;23;19926;-79
2022/06/11 04:03:23;;;;;;;;;;;;;;;20.88;56.26;98332.34;6217512;23;19927;-80
2022/06/11 04:05:50;;;;;;;;;;;;;;;21.07;55.79;98323.28;6217910;23;19928;-84
2022/06/11 04:08:16;;;;;;;;;;;;;;;21.28;55.40;98321.31;6246218;23;20244;-91
2022/06/11 04:10:43;;;;;;;;;;;;;;;21.26;55.58;98323.44;6220530;23;20344;-83
2022/06/11 04:13:09;;;;;;;;;;;;;;;21.33;54.77;98318.81;6218968;23;19920;-81
2022/06/11 04:15:35;;;;;;;;;;;;;;;21.47;54.74;98314.97;6192502;23;19920;-79
2022/06/11 04:18:02;;;;;;;;;;;;;;;21.49;54.44;98326.47;6192164;23;20252;-80
2022/06/11 04:20:28;;;;;;;;;;;;;;;21.70;53.61;98321.72;6242645;23;19920;-79
2022/06/11 04:22:54;;;;;;;;;;;;;;;22.03;53.57;98329.66;6196650;23;20229;-81
2022/06/11 04:25:21;;;;;;;;;;;;;;;22.01;52.59;98321.72;6193458;23;19981;-80
2022/06/11 04:27:53;;;;;;;;;;;;;;;21.79;53.43;98323.97;6242719;23;19919;-82
2022/06/11 04:30:21;;;;;;;;;;;;;;;21.80;53.06;98324.81;6243625;23;19924;-82
2022/06/11 04:32:46;;;;;;;;;;;;;;;;;;6218984;23;19920;-79
2022/06/11 04:35:12;;;;;;;;;;;;;;;21.33;54.35;98329.69;6217267;23;20252;-79
2022/06/11 04:37:37;;;;;;;;;;;;;;;21.25;54.65;98321.72;6217535;23;19943;-79
2022/06/11 04:40:04;;;;;;;;;;;;;;;21.25;54.56;98327.16;6192787;23;19920;-78
2022/06/11 04:42:30;;;;;;;;;;;;;;;21.38;54.01;98338.03;6222422;23;19931;-77
2022/06/11 04:44:56;;;;;;;;;;;;;;;21.28;52.96;98337.63;6251046;23;20006;-87
2022/06/11 04:47:27;;;;;;;;;;;;;;;21.28;53.26;98326.75;6197605;23;19919;-80
2022/06/11 04:49:55;;;;;;;;;;;;;;;21.39;52.56;98336.97;6247154;23;19920;-80
2022/06/11 04:52:21;;;;;;;;;;;;;;;21.10;52.39;98341.06;6196347;23;20359;-87
2022/06/11 04:54:47;;;;;;;;;;;;;;;21.23;52.41;98342.88;6196341;23;19920;-77
2022/06/11 04:57:13;;;;;;;;;;;;;;;21.24;51.44;98341.81;6247311;23;19973;-77
2022/06/11 04:59:38;;;;;;;;;;;;;;;21.39;51.33;98334.25;6195701;23;19920;-84
2022/06/11 05:02:04;;;;;;;;;;;;;;;21.37;50.74;98330.94;6220609;23;20314;-78
2022/06/11 05:04:30;;;;;;;;;;;;;;;21.57;51.38;98336.25;6247746;23;19930;-78
2022/06/11 05:06:56;;;;;;;;;;;;;;;21.60;50.41;98332.28;6222080;23;19923;-85
2022/06/11 05:09:23;;;;;;;;;;;;;;;21.57;49.36;98358.00;6246799;23;19926;-80
2022/06/11 05:11:50;;;;;;;;;;;;;;;21.55;48.08;98360.97;6196014;23;20010;-79
2022/06/11 05:14:16;;;;;;;;;;;;;;;21.67;48.16;98338.50;6221345;23;19927;-79
2022/06/11 05:16:43;;;;;;;;;;;;;;;21.92;48.09;98336.63;6197981;23;20019;-83
2022/06/11 05:19:09;;;;;;;;;;;;;;;21.94;47.48;98340.00;6196165;23;19927;-82
2022/06/11 05:21:35;;;;;;;;;;;;;;;22.14;48.06;98353.47;6247398;23;19926;-78
2022/06/11 05:24:01;;;;;;;;;;;;;;;22.42;46.84;98333.97;6220444;23;19973;-81
2022/06/11 05:26:29;;;;;;;;;;;;;;;22.50;46.76;98352.75;6222374;23;19924;-79
2022/06/11 05:28:55;;;;;;;;;;;;;;;22.36;47.26;98340.31;6220857;23;20271;-81
2022/06/11 05:31:21;;;;;;;;;;;;;;;22.35;45.77;98346.00;6220329;23;19926;-79
2022/06/11 05:33:47;;;;;;;;;;;;;;;22.18;46.48;98343.81;6220252;23;19927;-79
2022/06/11 05:36:13;;;;;;;;;;;;;;;22.15;46.23;98346.13;6220399;23;20006;-78
2022/06/11 05:38:39;;;;;;;;;;;;;;;22.33;46.55;98348.09;6220334;23;20005;-77
2022/06/11 05:41:05;;;;;;;;;;;;;;;22.39;45.27;98344.50;6220445;23;19925;-78
2022/06/11 05:43:31;;;;;;;;;;;;;;;22.65;45.18;98348.84;6220062;23;19955;-80
2022/06/11 05:46:02;;;;;;;;;;;;;;;22.60;45.09;98359.56;6195881;23;19966;-77
2022/06/11 05:48:31;;;;;;;;;;;;;;;22.61;45.36;98343.03;6220147;23;19919;-79
2022/06/11 05:50:57;;;;;;;;;;;;;;;22.63;44.33;98332.72;6221310;23;19919;-79
2022/06/11 05:53:25;;;;;;;;;;;;;;;22.26;44.44;98364.47;6220021;23;19920;-77
2022/06/11 05:55:52;;;;;;;;;;;;;;;22.43;44.38;98349.25;6220123;23;19930;-77
2022/06/11 05:58:23;;;;;;;;;;;;;;;22.14;44.12;98352.66;6196010;23;19966;-77
2022/06/11 06:00:54;;;;;;;;;;;;;;;22.16;45.10;98350.56;6195306;23;19969;-79
2022/06/11 06:03:20;;;;;;;;;;;;;;;22.27;43.70;98352.56;6219895;23;19951;-79
2022/06/11 06:05:46;;;;;;;;;;;;;;;22.01;43.84;98354.38;6245269;23;19930;-78
2022/06/11 06:08:11;;;;;;;;;;;;;;;21.95;46.38;98347.09;6246856;23;19924;-79
2022/06/11 06:10:37;;;;;;;;;;;;;;;21.85;46.60;98354.91;6195357;23;19919;-79
2022/06/11 06:13:45;;;;;;;;;;;;;;;21.88;46.55;98356.34;6220074;23;19919;-79
2022/06/11 06:15:50;;;;;;;;;;;;;;;22.01;46.61;98348.94;6246583;23;20077;-79
2022/06/11 06:18:15;;;;;;;;;;;;;;;22.15;46.50;98349.69;6194589;23;20328;-79
2022/06/11 06:20:41;;;;;;;;;;;;;;;22.07;45.18;98349.94;6219378;23;19926;-81
2022/06/11 06:23:06;;;;;;;;;;;;;;;22.07;45.40;98364.38;6194978;23;19919;-76
2022/06/11 06:25:32;;;;;;;;;;;;;;;21.96;44.11;98367.78;6219565;23;20370;-77
2022/06/11 06:27:58;;;;;;;;;;;;;;;21.79;44.36;98361.22;6219790;23;19923;-80
2022/06/11 06:30:23;;;;;;;;;;;;;;;21.70;45.42;98357.09;6244097;23;20002;-78
2022/06/11 06:32:49;;;;;;;;;;;;;;;21.94;45.40;98364.47;6193106;23;19963;-78
2022/06/11 06:35:15;;;;;;;;;;;;;;;22.01;44.50;98365.28;6218113;23;19982;-78
2022/06/11 06:37:40;;;;;;;;;;;;;;;22.00;44.28;98363.63;6218065;23;19924;-77
2022/06/11 06:40:07;;;;;;;;;;;;;;;21.96;45.05;98370.53;6193188;23;19970;-80
2022/06/11 06:42:32;;;;;;;;;;;;;;;22.47;44.42;98364.09;6218189;23;20054;-78
2022/06/11 06:45:00;;;;;;;;;;;;;;;22.87;43.90;98368.31;6245243;23;19935;-76
2022/06/11 06:47:25;;;;;;;;;;;;;;;23.03;43.51;98373.22;6218223;23;19919;-77
2022/06/11 06:49:51;;;;;;;;;;;;;;;22.89;43.09;98377.94;6218134;23;19998;-78
2022/06/11 06:52:17;;;;;;;;;;;;;;;22.86;43.68;98372.09;6243153;23;19943;-77
2022/06/11 06:54:43;;;;;;;;;;;;;;;22.68;43.44;98375.63;6217790;23;19919;-77
2022/06/11 06:57:08;;;;;;;;;;;;;;;23.08;43.28;98362.44;6218203;23;19981;-79
2022/06/11 06:59:34;;;;;;;;;;;;;;;23.34;43.00;98364.03;6218673;23;20348;-76
2022/06/11 07:02:00;;;;;;;;;;;;;;;23.31;43.10;98375.38;6194182;23;20310;-78
2022/06/11 07:04:25;;;;;;;;;;;;;;;22.97;43.48;98380.38;6219384;23;20352;-77
2022/06/11 07:06:51;;;;;;;;;;;;;;;22.88;43.74;98375.44;6219017;23;19931;-76
2022/06/11 07:09:17;;;;;;;;;;;;;;;23.05;42.84;98371.09;6244449;23;19970;-78
2022/06/11 07:11:42;;;;;;;;;;;;;;;23.16;42.23;98378.50;6246248;23;20247;-81
2022/06/11 07:14:08;;;;;;;;;;;;;;;23.38;40.91;98392.50;6244420;23;19927;-77
2022/06/11 07:16:36;;;;;;;;;;;;;;;23.32;41.29;98398.91;6245739;23;19920;-77
2022/06/11 07:19:05;;;;;;;;;;;;;;;23.34;41.06;98391.31;6194201;23;20319;-76
2022/06/11 07:21:36;;;;;;;;;;;;;;;23.34;40.38;98385.84;6194345;23;19945;-77
2022/06/11 07:24:04;;;;;;;;;;;;;;;23.39;40.53;98396.91;6194206;23;19919;-77
2022/06/11 07:26:36;;;;;;;;;;;;;;;23.14;41.19;98402.44;6219156;23;19959;-79
2022/06/11 07:29:09;;;;;;;;;;;;;;;23.20;41.53;98389.78;6194154;23;19919;-84
2022/06/11 07:31:37;;;;;;;;;;;;;;;23.81;41.51;98393.44;6218601;23;19959;-79
2022/06/11 07:34:04;;;;;;;;;;;;;;;24.11;41.38;98402.47;6219918;23;19927;-77
2022/06/11 07:36:30;;;;;;;;;;;;;;;24.21;39.37;98412.81;6219435;23;19919;-80
2022/06/11 07:38:55;;;;;;;;;;;;;;;23.89;40.10;98404.91;6219242;23;19926;-85
2022/06/11 07:41:21;;;;;;;;;;;;;;;23.55;40.19;98420.00;6218788;23;19923;-79
2022/06/11 07:43:47;;;;;;;;;;;;;;;23.84;40.86;98409.38;6193557;23;19920;-79
2022/06/11 07:46:13;;;;;;;;;;;;;;;23.83;40.95;98419.47;6193596;23;19955;-78
2022/06/11 07:48:39;;;;;;;;;;;;;;;24.02;39.17;98424.88;6219293;23;19920;-79
2022/06/11 07:51:05;;;;;;;;;;;;;;;23.48;40.82;98408.34;6219155;23;20247;-79
2022/06/11 07:53:32;;;;;;;;;;;;;;;23.59;41.81;98407.56;6219229;23;19919;-79
2022/06/11 07:55:57;;;;;;;;;;;;;;;23.65;40.55;98411.25;6244242;23;19927;-79
2022/06/11 07:58:25;;;;;;;;;;;;;;;23.75;39.42;98408.88;6218877;23;20006;-79
2022/06/11 08:00:52;;;;;;;;;;;;;;;23.82;39.51;98425.16;6218579;23;19926;-78
2022/06/11 08:03:19;;;;;;;;;;;;;;;23.64;40.41;98412.34;6218678;23;19923;-79
2022/06/11 08:05:45;;;;;;;;;;;;;;;23.60;39.71;98422.03;6193647;23;20384;-78
2022/06/11 08:08:12;;;;;;;;;;;;;;;23.75;39.80;98406.13;6193909;23;19930;-79
2022/06/11 08:10:40;;;;;;;;;;;;;;;24.03;40.10;98407.41;6193769;23;19961;-80
2022/06/11 08:13:06;;;;;;;;;;;;;;;24.08;40.13;98422.06;6194030;23;20462;-78
2022/06/11 08:15:32;;;;;;;;;;;;;;;24.37;39.49;98423.09;6193943;23;19919;-79
2022/06/11 08:17:57;;;;;;;;;;;;;;;24.58;38.51;98418.16;6219078;23;19926;-77
2022/06/11 08:20:26;;;;;;;;;;;;;;;24.73;38.41;98415.78;6219038;23;20258;-78
2022/06/11 08:22:53;;;;;;;;;;;;;;;24.56;37.60;98423.00;6219408;23;19927;-78
2022/06/11 08:25:19;;;;;;;;;;;;;;;24.80;38.64;98427.44;6220552;23;19920;-78
2022/06/11 08:27:45;;;;;;;;;;;;;;;24.54;37.64;98416.97;6195751;23;20305;-77
2022/06/11 08:30:15;;;;;;;;;;;;;;;24.26;37.96;98421.16;6195672;23;20259;-77
2022/06/11 08:32:40;;;;;;;;;;;;;;;24.55;37.28;98407.69;6195497;23;19927;-78
2022/06/11 08:35:06;;;;;;;;;;;;;;;24.71;37.96;98417.91;6245731;23;19919;-78
2022/06/11 08:37:32;;;;;;;;;;;;;;;24.61;37.62;98409.50;6221044;23;19985;-79
2022/06/11 08:39:58;;;;;;;;;;;;;;;24.81;37.36;98401.78;6221608;23;20365;-79
2022/06/11 08:42:27;;;;;;;;;;;;;;;25.51;36.92;98428.25;6220883;23;20359;-85
2022/06/11 08:44:52;;;;;;;;;;;;;;;25.34;35.26;98417.19;6196072;23;19919;-78
2022/06/11 08:47:21;;;;;;;;;;;;;;;25.04;36.61;98411.03;6195570;23;20190;-78
2022/06/11 08:49:48;;;;;;;;;;;;;;;24.95;35.91;98403.19;6220734;23;19919;-79
2022/06/11 08:52:17;;;;;;;;;;;;;;;24.64;36.57;98411.75;6220357;23;19923;-78
2022/06/11 08:54:44;;;;;;;;;;;;;;;24.55;37.59;98413.97;6195797;23;19919;-78
2022/06/11 08:57:13;;;;;;;;;;;;;;;24.72;37.45;98414.13;6195519;23;19924;-78
2022/06/11 08:59:47;;;;;;;;;;;;;;;24.98;36.39;98418.31;6220551;23;20340;-80
2022/06/11 09:02:19;;;;;;;;;;;;;;;24.63;36.91;98405.44;6195508;23;19974;-78
2022/06/11 09:04:55;;;;;;;;;;;;;;;24.87;37.74;98424.59;6220727;23;20341;-79
2022/06/11 09:07:40;;;;;;;;;;;;;;;24.76;38.20;98412.59;6220628;23;19998;-79
2022/06/11 09:10:05;;;;;;;;;;;;;;;24.36;37.45;98429.59;6247327;23;19927;-78
2022/06/11 09:12:46;;;;;;;;;;;;;;;24.69;36.66;98431.00;6194639;23;19920;-78
2022/06/11 09:15:22;;;;;;;;;;;;;;;24.84;36.66;98420.44;6220375;23;19919;-78
2022/06/11 09:18:06;;;;;;;;;;;;;;;25.25;35.59;98417.84;6170434;23;19994;-78
2022/06/11 09:20:32;;;;;;;;;;;;;;;25.06;34.26;98436.25;6219729;23;19926;-78
2022/06/11 09:23:08;;;;;;;;;;;;;;;24.63;35.13;98431.94;6220563;23;20010;-79
2022/06/11 09:25:37;;;;;;;;;;;;;;;24.45;35.49;98425.50;6219940;23;19920;-78
2022/06/11 09:28:12;;;;;;;;;;;;;;;24.48;35.98;98429.66;6220170;23;20240;-78
2022/06/11 09:30:43;;;;;;;;;;;;;;;24.62;37.07;98420.16;6220373;23;19920;-78
2022/06/11 09:33:14;;;;;;;;;;;;;;;25.54;35.66;98421.44;6194850;23;19925;-79
2022/06/11 09:35:58;;;;;;;;;;;;;;;25.42;35.50;98432.41;6246922;23;20002;-77
2022/06/11 09:38:30;;;;;;;;;;;;;;;25.01;36.48;98447.91;6220188;23;19919;-80
2022/06/11 09:41:02;;;;;;;;;;;;;;;24.69;37.18;98422.81;6220966;23;19920;-79
2022/06/11 09:43:37;;;;;;;;;;;;;;;24.68;36.89;98424.72;6188904;23;19923;-80
2022/06/11 09:46:07;;;;;;;;;;;;;;;24.68;37.24;98418.41;6164487;23;20011;-79
2022/06/11 09:48:51;;;;;;;;;;;;;;;24.86;37.48;98431.13;6213983;23;19927;-80
2022/06/11 09:51:36;;;;;;;;;;;;;;;24.87;37.15;98441.00;6214210;23;20006;-79
2022/06/11 09:54:16;;;;;;;;;;;;;;;25.41;37.38;98428.03;6188910;23;19954;-80
2022/06/11 09:56:49;;;;;;;;;;;;;;;25.14;36.74;98431.28;6188874;23;19927;-80
2022/06/11 09:59:15;;;;;;;;;;;;;;;26.17;36.50;98431.47;6165145;23;20308;-82
2022/06/11 10:01:46;;;;;;;;;;;;;;;26.46;34.87;98417.78;6188606;23;19927;-81
2022/06/11 10:04:13;;;;;;;;;;;;;;;26.88;33.87;98427.22;6188389;23;19947;-81
2022/06/11 10:06:46;;;;;;;;;;;;;;;27.24;32.57;98425.03;6213509;23;19951;-81
2022/06/11 10:09:15;;;;;;;;;;;;;;;27.45;31.05;98430.81;6139213;23;19920;-81
2022/06/11 10:11:48;;;;;;;;;;;;;;;27.35;30.75;98426.84;6164127;23;19920;-81
2022/06/11 10:14:29;;;;;;;;;;;;;;;27.45;31.73;98430.81;6219084;23;19920;-81
2022/06/11 10:17:15;;;;;;;;;;;;;;;27.70;31.35;98422.06;6219846;23;20002;-81
2022/06/11 10:19:51;;;;;;;;;;;;;;;26.79;32.52;98427.91;6218156;23;20002;-80
2022/06/11 10:22:19;;;;;;;;;;;;;;;26.99;32.18;98432.88;6195318;23;20327;-81
2022/06/11 10:24:51;;;;;;;;;;;;;;;27.41;31.93;98441.44;6219821;23;19957;-81
2022/06/11 10:27:19;;;;;;;;;;;;;;;28.20;31.55;98432.81;6194162;23;19919;-80
2022/06/11 10:29:49;;;;;;;;;;;;;;;28.89;29.79;98445.84;6194285;23;19927;-80
2022/06/11 10:32:19;;;;;;;;;;;;;;;28.90;30.46;98441.16;6219284;23;19920;-78
2022/06/11 10:34:51;;;;;;;;;;;;;;;29.25;29.78;98435.09;6219521;23;19919;-79
2022/06/11 10:37:24;;;;;;;;;;;;;;;29.36;29.31;98433.22;6194974;23;20010;-79
2022/06/11 10:39:59;;;;;;;;;;;;;;;29.06;30.57;98433.88;6219848;23;19919;-79
2022/06/11 10:42:32;;;;;;;;;;;;;;;29.82;28.95;98423.25;6219450;23;20430;-79
2022/06/11 10:44:59;;;;;;;;;;;;;;;30.07;28.34;98428.03;6244428;23;20339;-79
2022/06/11 10:47:28;;;;;;;;;;;;;;;29.34;28.36;98435.41;6194272;23;20347;-78
2022/06/11 10:50:00;;;;;;;;;;;;;;;29.09;28.31;98425.09;6219161;23;19919;-78
2022/06/11 10:52:41;;;;;;;;;;;;;;;29.62;27.36;98421.25;6245760;23;19973;-79
2022/06/11 10:55:10;;;;;;;;;;;;;;;28.82;28.35;98438.91;6244771;23;20014;-78
2022/06/11 10:57:37;;;;;;;;;;;;;;;28.41;29.30;98427.56;6193989;23;19920;-80
2022/06/11 11:00:06;;;;;;;;;;;;;;;27.34;30.72;98425.19;6194111;23;19981;-79
2022/06/11 11:02:44;;;;;;;;;;;;;;;26.51;31.93;98437.03;6219533;23;19919;-79
2022/06/11 11:05:11;;;;;;;;;;;;;;;26.30;32.72;98425.69;6194625;23;19924;-78
2022/06/11 11:07:42;;;;;;;;;;;;;;;26.62;32.19;98420.50;6218988;23;19965;-78
2022/06/11 11:10:27;;;;;;;;;;;;;;;27.34;30.52;98425.19;6195103;23;19927;-77
2022/06/11 11:12:55;;;;;;;;;;;;;;;28.44;30.75;98435.28;6194878;23;20256;-78
2022/06/11 11:15:25;;;;;;;;;;;;;;;29.21;28.72;98434.78;6194278;23;19920;-79
2022/06/11 11:17:58;;;;;;;;;;;;;;;30.13;28.27;98420.59;6194105;23;20248;-79
2022/06/11 11:20:39;;;;;;;;;;;;;;;29.94;27.14;98428.53;6194465;23;19969;-79
2022/06/11 11:23:07;;;;;;;;;;;;;;;30.59;26.50;98407.72;6245911;23;20251;-78
2022/06/11 11:25:35;;;;;;;;;;;;;;;30.31;26.20;98411.00;6194143;23;19920;-79
2022/06/11 11:28:01;;;;;;;;;;;;;;;29.52;26.24;98421.19;6193965;23;19930;-79
2022/06/11 11:30:35;;;;;;;;;;;;;;;30.13;26.71;98421.44;6193953;23;19919;-79
2022/06/11 11:33:12;;;;;;;;;;;;;;;29.67;26.38;98426.78;6245557;23;19923;-78
2022/06/11 11:35:39;;;;;;;;;;;;;;;28.59;28.07;98423.59;6194290;23;19920;-78
2022/06/11 11:38:25;;;;;;;;;;;;;;;28.49;28.91;98411.41;6246013;23;20299;-78
2022/06/11 11:40:55;;;;;;;;;;;;;;;28.14;29.59;98409.13;6243626;23;19924;-79
2022/06/11 11:43:22;;;;;;;;;;;;;;;27.96;30.14;98420.47;6193757;23;19927;-78
2022/06/11 11:45:55;;;;;;;;;;;;;;;28.63;29.97;98411.81;6194013;23;19919;-79
2022/06/11 11:48:26;;;;;;;;;;;;;;;28.07;30.50;98403.00;6194270;23;19959;-78
2022/06/11 11:50:54;;;;;;;;;;;;;;;29.26;29.33;98400.94;6169542;23;20002;-78
2022/06/11 11:53:23;;;;;;;;;;;;;;;30.61;27.60;98391.69;6193979;23;19920;-78
2022/06/11 11:55:55;;;;;;;;;;;;;;;31.52;26.59;98412.03;6194278;23;19998;-78
2022/06/11 11:58:32;;;;;;;;;;;;;;;32.00;25.87;98397.72;6195542;23;19924;-79
2022/06/11 12:01:05;;;;;;;;;;;;;;;32.23;24.93;98413.59;6221362;23;19947;-79
2022/06/11 12:03:47;;;;;;;;;;;;;;;31.80;25.32;98410.50;6195702;23;19930;-79
2022/06/11 12:06:25;;;;;;;;;;;;;;;31.47;25.78;98389.94;6196462;23;19923;-80
2022/06/11 12:08:52;;;;;;;;;;;;;;;31.49;25.73;98423.63;6196442;23;20344;-79
2022/06/11 12:11:25;;;;;;;;;;;;;;;31.09;26.35;98399.69;6195951;23;20350;-80
2022/06/11 12:13:53;;;;;;;;;;;;;;;31.62;25.60;98397.31;6220657;23;20028;-80
2022/06/11 12:16:21;;;;;;;;;;;;;;;31.97;25.63;98404.66;6196035;23;19946;-79
2022/06/11 12:18:55;;;;;;;;;;;;;;;31.79;26.12;98402.50;6221296;23;19954;-78
2022/06/11 12:21:25;;;;;;;;;;;;;;;33.03;24.97;98402.19;6196145;23;19924;-78
2022/06/11 12:23:56;;;;;;;;;;;;;;;33.66;24.25;98383.75;6195880;23;19989;-80
2022/06/11 12:26:25;;;;;;;;;;;;;;;34.35;23.52;98396.13;6195536;23;19925;-78
2022/06/11 12:28:54;;;;;;;;;;;;;;;34.34;23.17;98391.72;6195351;23;20363;-80
2022/06/11 12:31:20;;;;;;;;;;;;;;;34.06;23.54;98394.31;6220493;23;19923;-78
2022/06/11 12:33:46;;;;;;;;;;;;;;;33.42;23.78;98401.22;6220590;23;19964;-78
2022/06/11 12:36:21;;;;;;;;;;;;;;;33.25;24.15;98398.06;6195713;23;19920;-81
2022/06/11 12:38:47;;;;;;;;;;;;;;;33.85;23.57;98395.69;6220773;23;19919;-78
2022/06/11 12:41:13;;;;;;;;;;;;;;;34.58;22.88;98394.38;6220535;23;20343;-80
2022/06/11 12:43:59;;;;;;;;;;;;;;;35.51;22.23;98389.66;6220271;23;19969;-78
2022/06/11 12:46:27;;;;;;;;;;;;;;;34.93;22.39;98390.16;6226230;23;19947;-78
2022/06/11 12:49:04;;;;;;;;;;;;;;;34.87;22.74;98380.28;6220687;23;20024;-81
2022/06/11 12:51:36;;;;;;;;;;;;;;;34.64;23.38;98372.91;6220479;23;19919;-78
2022/06/11 12:54:02;;;;;;;;;;;;;;;34.25;23.22;98379.63;6220641;23;19965;-78
2022/06/11 12:56:40;;;;;;;;;;;;;;;34.80;23.11;98375.13;6195440;23;19919;-80
2022/06/11 12:59:19;;;;;;;;;;;;;;;35.29;22.20;98370.06;6247491;23;19920;-81
2022/06/11 13:02:07;;;;;;;;;;;;;;;34.32;23.04;98368.97;6196035;23;19919;-79